Hagar Shores, MI (49039)

11:19 AM EDT on June 23, 2017 (GMT -0400)
East Paw Paw Lake | | Change Station

Elev 663 ft 42.21 °N, 86.25 °W | Updated 0 second ago

Overcast
Overcast
67.9 °F
Feels Like 67.9 °F
N
1.0
Wind Variable Wind from NE
Gusts 4.0 mph

Today
High -- | Low -- °F
--% Chance of Precip.
Yesterday
High -- | Low -- °F
Precip. -- in
Pressure 29.66 in
Visibility 8.0 miles
Clouds Overcast 2300 ft
Dew Point 65 °F
Humidity 91%
Rainfall 0.00 in
Snow Depth Not available.
6:09 AM 9:25 PM
Waning Crescent, 0% visible
METAR KBEH 231453Z AUTO VRB05KT 8SM OVC023 19/17 A2967 RMK AO2 SLP043 60017 T01940172 50012
Pressure 29.66 in
Visibility 8.0 miles
Clouds Overcast 2300 ft
Dew Point 65 °F
Humidity 91%
Rainfall 0.00 in
Snow Depth Not available.
6:09 AM 9:25 PM
Waning Crescent, 0% visible
METAR KBEH 231453Z AUTO VRB05KT 8SM OVC023 19/17 A2967 RMK AO2 SLP043 60017 T01940172 50012

Get Severe Weather Alerts

Thanks for signing up!

Be on the lookout for a verification email in your inbox.

You'll start receiving the daily forecast at 6 AM.

×

10-Day Weather Forecast

Almanac

Astronomy

Jun. 23, 2017 Rise Set
Actual Time
Civil Twilight
Nautical Twilight
Astronomical Twilight
Moon
Length of Visible Light
Length of Day
Tomorrow will be .
, % of the Moon is Illuminated

Today's Extremes

State Highs State Lows

Community

WunderPhotos

Category 6

Welcome to Category 6. This is the collective home for Weather Underground's featured writeups by Dr. Jeff Masters (right), Bob Henson (left), Chris Burt, and other regular contributors.

Nearby

Air Quality

  Air Quality AQ Index Pollutant
Not available.

Snow Depth

Station Depth Elevation

Earthquake Activity

City Distance Mag. Time & Date
Minimum magnitude displayed is 2.5.

Coastal Water Temperatures

Place Temperature

Stations

Nearby Weather Stations

Station Location Temp. Windchill Dew Point Humidity Wind Precip. Elev Updated Type
                   

Watches & Warnings

There are currently no watches in effect.